createdAt,value
2016-06-01T00:00:47.525Z,0
2016-06-01T00:01:47.544Z,0
2016-06-01T00:03:01.328Z,0
2016-06-01T00:03:47.533Z,0
2016-06-01T00:04:47.396Z,0
2016-06-01T00:05:47.413Z,0
2016-06-01T00:06:47.557Z,0
2016-06-01T00:07:47.419Z,0
2016-06-01T00:08:47.890Z,0
2016-06-01T00:09:47.602Z,0
2016-06-01T00:10:47.475Z,0
2016-06-01T00:11:47.659Z,0
2016-06-01T00:12:47.549Z,0
2016-06-01T00:13:47.577Z,0
2016-06-01T00:14:47.749Z,0
2016-06-01T00:15:47.760Z,0
2016-06-01T00:16:47.789Z,0
2016-06-01T00:17:47.801Z,0
2016-06-01T00:18:47.813Z,0
2016-06-01T00:19:47.821Z,0
2016-06-01T00:20:47.827Z,0
2016-06-01T00:21:47.833Z,0
2016-06-01T00:22:47.839Z,0
2016-06-01T00:23:47.439Z,0
2016-06-01T00:24:47.880Z,0
2016-06-01T00:25:47.868Z,0
2016-06-01T00:26:47.872Z,0
2016-06-01T00:27:47.736Z,0
2016-06-01T00:28:47.880Z,0
2016-06-01T00:29:47.899Z,0
2016-06-01T00:30:47.746Z,0
2016-06-01T00:31:47.905Z,0
2016-06-01T00:32:47.767Z,0
2016-06-01T00:33:47.927Z,0
2016-06-01T00:34:47.789Z,0
2016-06-01T00:35:47.933Z,0
2016-06-01T00:36:47.639Z,0
2016-06-01T00:37:47.797Z,0
2016-06-01T00:38:48.472Z,0
2016-06-01T00:39:47.819Z,0
2016-06-01T00:40:47.962Z,0
2016-06-01T00:41:47.714Z,0
2016-06-01T00:42:47.983Z,0
2016-06-01T00:43:48.032Z,0
2016-06-01T00:44:47.988Z,0
2016-06-01T00:45:48.006Z,0
2016-06-01T00:46:47.852Z,0
2016-06-01T00:47:48.027Z,0
2016-06-01T00:48:48.124Z,0
2016-06-01T00:49:48.033Z,0
2016-06-01T00:50:47.879Z,0
2016-06-01T00:51:48.054Z,0
2016-06-01T00:52:48.025Z,0
2016-06-01T00:53:47.981Z,0
2016-06-01T00:54:47.905Z,0
2016-06-01T00:55:47.908Z,0
2016-06-01T00:56:48.082Z,0
2016-06-01T00:57:48.070Z,0
2016-06-01T00:58:48.073Z,0
2016-06-01T00:59:48.090Z,0
2016-06-01T01:00:48.078Z,0
2016-06-01T01:01:48.096Z,0
2016-06-01T01:02:48.115Z,0
2016-06-01T01:03:48.101Z,0
2016-06-01T01:04:47.807Z,0
2016-06-01T01:05:48.138Z,0
2016-06-01T01:06:48.125Z,0
2016-06-01T01:07:47.987Z,0
2016-06-01T01:08:48.193Z,0
2016-06-01T01:09:47.992Z,0
2016-06-01T01:10:48.152Z,0
2016-06-01T01:11:47.855Z,0
2016-06-01T01:12:47.858Z,0
2016-06-01T01:13:48.019Z,0
2016-06-01T01:14:48.194Z,0
2016-06-01T01:15:48.197Z,0
2016-06-01T01:16:48.025Z,0
2016-06-01T01:17:48.186Z,0
2016-06-01T01:18:48.204Z,0
2016-06-01T01:19:48.207Z,0
2016-06-01T01:20:47.894Z,0
2016-06-01T01:21:48.054Z,0
2016-06-01T01:22:48.228Z,0
2016-06-01T01:23:48.121Z,0
2016-06-01T01:24:48.077Z,0
2016-06-01T01:25:48.080Z,0
2016-06-01T01:26:48.238Z,0
2016-06-01T01:27:48.257Z,0
2016-06-01T01:28:48.260Z,0
2016-06-01T01:29:48.263Z,0
2016-06-01T01:30:48.281Z,0
2016-06-01T01:31:48.126Z,0
2016-06-01T01:33:02.382Z,0
2016-06-01T01:33:48.289Z,0
2016-06-01T01:34:48.292Z,0
2016-06-01T01:35:48.153Z,0
2016-06-01T01:36:48.297Z,0
2016-06-01T01:37:48.315Z,0
2016-06-01T01:38:48.443Z,0
2016-06-01T01:39:48.320Z,0
2016-06-01T01:40:48.339Z,0
2016-06-01T01:41:48.325Z,0
2016-06-01T01:42:48.344Z,0
2016-06-01T01:43:48.347Z,0
2016-06-01T01:44:48.194Z,0
2016-06-01T01:45:48.055Z,0
2016-06-01T01:46:48.230Z,0
2016-06-01T01:47:48.061Z,0
2016-06-01T01:48:48.361Z,0
2016-06-01T01:49:48.222Z,0
2016-06-01T01:50:48.303Z,0
2016-06-01T01:51:48.244Z,0
2016-06-01T01:52:48.246Z,0
2016-06-01T01:53:48.890Z,0
2016-06-01T01:54:48.438Z,0
2016-06-01T01:55:48.426Z,0
2016-06-01T01:56:48.444Z,0
2016-06-01T01:57:48.307Z,0
2016-06-01T01:58:48.293Z,0
2016-06-01T01:59:48.296Z,0
2016-06-01T02:00:48.440Z,0
2016-06-01T02:01:48.317Z,0
2016-06-01T02:02:48.460Z,0
2016-06-01T02:03:48.478Z,0
2016-06-01T02:04:48.482Z,0
2016-06-01T02:05:48.484Z,0
2016-06-01T02:06:48.331Z,0
2016-06-01T02:07:48.490Z,0
2016-06-01T02:08:48.867Z,0
2016-06-01T02:09:49.150Z,0
2016-06-01T02:10:48.498Z,0
2016-06-01T02:11:48.359Z,0
2016-06-01T02:12:48.534Z,0
2016-06-01T02:13:48.522Z,0
2016-06-01T02:14:48.539Z,0
2016-06-01T02:15:48.542Z,0
2016-06-01T02:16:48.545Z,0
2016-06-01T02:17:48.564Z,0
2016-06-01T02:18:48.566Z,0
2016-06-01T02:19:48.397Z,0
2016-06-01T02:20:48.571Z,0
2016-06-01T02:21:48.574Z,0
2016-06-01T02:22:48.421Z,0
2016-06-01T02:23:48.454Z,0
2016-06-01T02:24:48.895Z,0
2016-06-01T02:25:48.601Z,0
2016-06-01T02:26:48.446Z,0
2016-06-01T02:27:48.621Z,0
2016-06-01T02:28:48.609Z,0
2016-06-01T02:29:48.454Z,0
2016-06-01T02:30:48.646Z,0
2016-06-01T02:31:48.336Z,0
2016-06-01T02:32:48.650Z,0
2016-06-01T02:33:48.669Z,0
2016-06-01T02:34:48.656Z,0
2016-06-01T02:35:48.659Z,0
2016-06-01T02:36:48.365Z,0
2016-06-01T02:37:48.679Z,0
2016-06-01T02:38:48.791Z,0
2016-06-01T02:39:48.575Z,0
2016-06-01T02:40:48.703Z,0
2016-06-01T02:41:48.706Z,0
2016-06-01T02:42:48.709Z,0
2016-06-01T02:43:48.712Z,0
2016-06-01T02:44:48.761Z,0
2016-06-01T02:45:48.779Z,0
2016-06-01T02:46:48.563Z,0
2016-06-01T02:47:48.785Z,0
2016-06-01T02:48:48.709Z,0
2016-06-01T02:49:48.650Z,0
2016-06-01T02:50:48.636Z,0
2016-06-01T02:51:48.763Z,0
2016-06-01T02:52:48.657Z,0
2016-06-01T02:53:48.755Z,0
2016-06-01T02:54:48.491Z,0
2016-06-01T02:55:48.478Z,0
2016-06-01T02:56:48.825Z,0
2016-06-01T02:57:48.624Z,0
2016-06-01T02:58:48.642Z,0
2016-06-01T02:59:48.802Z,0
2016-06-01T03:00:48.648Z,0
2016-06-01T03:01:48.682Z,0
2016-06-01T03:02:48.810Z,0
2016-06-01T03:03:48.828Z,0
2016-06-01T03:04:48.673Z,0
2016-06-01T03:05:48.834Z,0
2016-06-01T03:06:48.695Z,0
2016-06-01T03:07:48.839Z,0
2016-06-01T03:08:49.701Z,0
2016-06-01T03:09:48.734Z,0
2016-06-01T03:10:48.550Z,0
2016-06-01T03:11:48.552Z,0
2016-06-01T03:12:48.868Z,0
2016-06-01T03:13:48.870Z,0
2016-06-01T03:14:48.889Z,0
2016-06-01T03:15:48.735Z,0
2016-06-01T03:16:48.597Z,0
2016-06-01T03:17:48.912Z,0
2016-06-01T03:18:48.759Z,0
2016-06-01T03:19:48.761Z,0
2016-06-01T03:20:48.920Z,0
2016-06-01T03:21:48.783Z,0
2016-06-01T03:22:48.832Z,0
2016-06-01T03:23:48.944Z,0
2016-06-01T03:24:49.666Z,0
2016-06-01T03:25:48.950Z,0
2016-06-01T03:26:48.952Z,0
2016-06-01T03:27:48.955Z,0
2016-06-01T03:28:48.958Z,0
2016-06-01T03:29:48.976Z,0
2016-06-01T03:30:48.979Z,0
2016-06-01T03:31:48.982Z,0
2016-06-01T03:33:17.190Z,0
2016-06-01T03:33:49.018Z,0
2016-06-01T03:34:49.020Z,0
2016-06-01T03:35:49.023Z,0
2016-06-01T03:36:49.026Z,0
2016-06-01T03:37:48.857Z,0
2016-06-01T03:38:49.219Z,0
2016-06-01T03:39:49.034Z,0
2016-06-01T03:40:49.036Z,0
2016-06-01T03:41:48.898Z,0
2016-06-01T03:42:49.042Z,0
2016-06-01T03:43:48.904Z,0
2016-06-01T03:44:49.064Z,0
2016-06-01T03:45:49.067Z,0
2016-06-01T03:46:49.068Z,0
2016-06-01T03:47:49.133Z,0
2016-06-01T03:48:49.074Z,0
2016-06-01T03:49:48.983Z,0
2016-06-01T03:50:49.125Z,0
2016-06-01T03:51:49.098Z,0
2016-06-01T03:52:49.099Z,0
2016-06-01T03:53:49.197Z,0
2016-06-01T03:54:49.122Z,0
2016-06-01T03:55:49.171Z,0
2016-06-01T03:56:49.142Z,0
2016-06-01T03:57:49.130Z,0
2016-06-01T03:58:49.007Z,0
2016-06-01T03:59:49.135Z,0
2016-06-01T04:00:49.152Z,0
2016-06-01T04:01:49.171Z,0
2016-06-01T04:03:03.255Z,0
2016-06-01T04:03:49.208Z,0
2016-06-01T04:04:49.180Z,0
2016-06-01T04:05:49.181Z,0
2016-06-01T04:06:49.185Z,0
2016-06-01T04:07:49.204Z,0
2016-06-01T04:08:49.909Z,0
2016-06-01T04:09:49.646Z,0
2016-06-01T04:10:49.055Z,0
2016-06-01T04:11:48.932Z,0
2016-06-01T04:12:49.217Z,0
2016-06-01T04:13:49.251Z,0
2016-06-01T04:14:49.237Z,0
2016-06-01T04:15:49.240Z,0
2016-06-01T04:16:49.243Z,0
2016-06-01T04:17:49.105Z,0
2016-06-01T04:18:49.264Z,0
2016-06-01T04:19:49.282Z,0
2016-06-01T04:20:49.317Z,0
2016-06-01T04:21:48.975Z,0
2016-06-01T04:22:49.291Z,0
2016-06-01T04:23:49.230Z,0
2016-06-01T04:24:49.452Z,0
2016-06-01T04:25:49.298Z,0
2016-06-01T04:26:49.317Z,0
2016-06-01T04:27:49.163Z,0
2016-06-01T04:28:49.338Z,0
2016-06-01T04:29:49.324Z,0
2016-06-01T04:30:49.328Z,0
2016-06-01T04:31:49.329Z,0
2016-06-01T04:32:49.193Z,0
2016-06-01T04:33:49.351Z,0
2016-06-01T04:34:49.213Z,0
2016-06-01T04:35:49.357Z,0
2016-06-01T04:36:49.374Z,0
2016-06-01T04:37:49.221Z,0
2016-06-01T04:38:49.537Z,0
2016-06-01T04:39:49.462Z,0
2016-06-01T04:40:49.417Z,0
2016-06-01T04:41:49.404Z,0
2016-06-01T04:42:49.406Z,0
2016-06-01T04:43:49.253Z,0
2016-06-01T04:44:49.287Z,0
2016-06-01T04:45:49.273Z,0
2016-06-01T04:46:49.276Z,0
2016-06-01T04:47:49.139Z,0
2016-06-01T04:48:49.438Z,0
2016-06-01T04:49:49.489Z,0
2016-06-01T04:50:49.444Z,0
2016-06-01T04:51:49.352Z,0
2016-06-01T04:52:49.309Z,0
2016-06-01T04:53:49.186Z,0
2016-06-01T04:54:49.657Z,0
2016-06-01T04:55:49.489Z,0
2016-06-01T04:56:49.397Z,0
2016-06-01T04:57:49.494Z,0
2016-06-01T04:58:49.512Z,0
2016-06-01T04:59:49.359Z,0
2016-06-01T05:00:49.361Z,0
2016-06-01T05:01:49.364Z,0
2016-06-01T05:02:49.523Z,0
2016-06-01T05:03:49.526Z,0
2016-06-01T05:04:49.388Z,0
2016-06-01T05:05:49.546Z,0
2016-06-01T05:06:49.565Z,0
2016-06-01T05:07:49.568Z,0
2016-06-01T05:08:49.899Z,0
2016-06-01T05:09:49.433Z,0
2016-06-01T05:10:49.576Z,0
2016-06-01T05:11:49.578Z,5
2016-06-01T05:12:49.425Z,5
2016-06-01T05:13:49.584Z,0
2016-06-01T05:14:49.586Z,0
2016-06-01T05:15:49.433Z,0
2016-06-01T05:16:49.607Z,0
2016-06-01T05:17:49.610Z,0
2016-06-01T05:18:49.628Z,0
2016-06-01T05:19:49.631Z,0
2016-06-01T05:20:49.478Z,0
2016-06-01T05:21:49.512Z,5
2016-06-01T05:22:49.655Z,5
2016-06-01T05:23:49.516Z,5
2016-06-01T05:24:49.958Z,5
2016-06-01T05:25:49.663Z,5
2016-06-01T05:26:49.666Z,5
2016-06-01T05:27:49.700Z,5
2016-06-01T05:28:49.530Z,5
2016-06-01T05:29:49.549Z,5
2016-06-01T05:30:49.724Z,5
2016-06-01T05:31:49.554Z,5
2016-06-01T05:33:03.794Z,5
2016-06-01T05:33:49.716Z,5
2016-06-01T05:34:49.702Z,5
2016-06-01T05:35:49.721Z,5
2016-06-01T05:36:49.583Z,5
2016-06-01T05:37:49.586Z,10
2016-06-01T05:38:50.338Z,10
2016-06-01T05:39:49.888Z,10
2016-06-01T05:40:49.750Z,10
2016-06-01T05:41:49.596Z,10
2016-06-01T05:42:49.756Z,10
2016-06-01T05:43:49.461Z,10
2016-06-01T05:44:49.792Z,10
2016-06-01T05:45:49.779Z,10
2016-06-01T05:46:49.642Z,10
2016-06-01T05:47:49.784Z,10
2016-06-01T05:48:49.803Z,5
2016-06-01T05:49:49.884Z,5
2016-06-01T05:50:49.824Z,10
2016-06-01T05:51:49.545Z,10
2016-06-01T05:52:49.845Z,10
2016-06-01T05:53:49.410Z,10
2016-06-01T05:54:50.772Z,10
2016-06-01T05:55:49.837Z,10
2016-06-01T05:56:49.919Z,10
2016-06-01T05:57:49.874Z,15
2016-06-01T05:58:49.705Z,20
2016-06-01T05:59:49.864Z,30
2016-06-01T06:00:49.867Z,30
2016-06-01T06:01:49.885Z,30
2016-06-01T06:02:49.731Z,35
2016-06-01T06:03:49.891Z,40
2016-06-01T06:04:49.893Z,45
2016-06-01T06:05:49.895Z,45
2016-06-01T06:06:49.757Z,40
2016-06-01T06:07:49.932Z,40
2016-06-01T06:08:49.888Z,50
2016-06-01T06:09:50.937Z,50
2016-06-01T06:10:53.377Z,50
2016-06-01T06:11:49.787Z,45
2016-06-01T06:12:49.946Z,45
2016-06-01T06:13:49.949Z,50
2016-06-01T06:14:49.795Z,45
2016-06-01T06:15:55.172Z,40
2016-06-01T06:16:49.815Z,35
2016-06-01T06:17:49.990Z,30
2016-06-01T06:18:49.977Z,30
2016-06-01T06:19:49.980Z,30
2016-06-01T06:20:54.014Z,30
2016-06-01T06:21:49.844Z,30
2016-06-01T06:22:50.003Z,30
2016-06-01T06:23:50.054Z,25
2016-06-01T06:24:50.087Z,20
2016-06-01T06:25:52.825Z,20
2016-06-01T06:26:50.030Z,15
2016-06-01T06:27:49.564Z,15
2016-06-01T06:28:50.035Z,15
2016-06-01T06:29:50.039Z,15
2016-06-01T06:30:51.150Z,15
2016-06-01T06:31:50.058Z,15
2016-06-01T06:32:50.077Z,15
2016-06-01T06:33:49.939Z,15
2016-06-01T06:34:49.927Z,15
2016-06-01T06:35:51.149Z,15
2016-06-01T06:36:50.072Z,15
2016-06-01T06:37:49.950Z,20
2016-06-01T06:38:50.499Z,20
2016-06-01T06:39:50.112Z,15
2016-06-01T06:40:53.443Z,15
2016-06-01T06:41:49.977Z,20
2016-06-01T06:42:50.121Z,15
2016-06-01T06:43:49.982Z,15
2016-06-01T06:44:50.016Z,10
2016-06-01T06:45:50.846Z,10
2016-06-01T06:46:50.146Z,10
2016-06-01T06:47:50.181Z,10
2016-06-01T06:48:50.183Z,10
2016-06-01T06:49:50.170Z,10
2016-06-01T06:50:54.189Z,10
2016-06-01T06:51:50.192Z,10
2016-06-01T06:52:49.928Z,10
2016-06-01T06:53:49.758Z,10
2016-06-01T06:54:51.261Z,10
2016-06-01T06:55:52.467Z,10
2016-06-01T06:56:50.220Z,5
2016-06-01T06:57:50.270Z,5
2016-06-01T06:58:50.226Z,5
2016-06-01T06:59:50.244Z,5
2016-06-01T07:00:53.027Z,5
2016-06-01T07:01:50.249Z,5
2016-06-01T07:02:50.236Z,5
2016-06-01T07:03:50.270Z,10
2016-06-01T07:04:50.273Z,10
2016-06-01T07:05:54.011Z,10
2016-06-01T07:06:50.278Z,10
2016-06-01T07:07:50.124Z,15
2016-06-01T07:08:50.628Z,10
2016-06-01T07:09:51.427Z,10
2016-06-01T07:10:53.383Z,10
2016-06-01T07:11:50.307Z,10
2016-06-01T07:12:50.326Z,10
2016-06-01T07:13:50.329Z,15
2016-06-01T07:14:50.315Z,15
2016-06-01T07:15:53.974Z,15
2016-06-01T07:16:50.179Z,15
2016-06-01T07:17:50.340Z,20
2016-06-01T07:18:50.357Z,20
2016-06-01T07:19:50.188Z,20
2016-06-01T07:20:50.520Z,20
2016-06-01T07:21:50.365Z,25
2016-06-01T07:22:50.384Z,25
2016-06-01T07:23:51.339Z,25
2016-06-01T07:24:50.670Z,20
2016-06-01T07:25:53.626Z,25
2016-06-01T07:26:50.411Z,25
2016-06-01T07:27:50.397Z,25
2016-06-01T07:28:50.431Z,25
2016-06-01T07:29:50.262Z,25
2016-06-01T07:30:51.967Z,25
2016-06-01T07:31:50.252Z,25
2016-06-01T07:32:50.427Z,25
2016-06-01T07:33:50.430Z,25
2016-06-01T07:34:50.447Z,25
2016-06-01T07:35:52.653Z,25
2016-06-01T07:36:50.141Z,30
2016-06-01T07:37:50.455Z,35
2016-06-01T07:38:51.160Z,35
2016-06-01T07:39:51.288Z,30
2016-06-01T07:40:52.698Z,30
2016-06-01T07:41:50.497Z,25
2016-06-01T07:42:50.500Z,20
2016-06-01T07:43:50.503Z,20
2016-06-01T07:44:50.505Z,15
2016-06-01T07:45:53.086Z,15
2016-06-01T07:46:50.510Z,15
2016-06-01T07:47:50.357Z,15
2016-06-01T07:48:50.532Z,15
2016-06-01T07:49:50.223Z,15
2016-06-01T07:50:52.771Z,10
2016-06-01T07:51:50.540Z,10
2016-06-01T07:52:50.620Z,10
2016-06-01T07:53:51.686Z,10
2016-06-01T07:54:51.407Z,10
2016-06-01T07:55:53.754Z,10
2016-06-01T07:56:50.584Z,10
2016-06-01T07:57:50.415Z,10
2016-06-01T07:58:50.434Z,10
2016-06-01T07:59:50.592Z,10
2016-06-01T08:00:51.206Z,10
2016-06-01T08:01:50.613Z,10
2016-06-01T08:02:50.600Z,10
2016-06-01T08:03:50.463Z,10
2016-06-01T08:04:50.481Z,10
2016-06-01T08:05:54.061Z,10
2016-06-01T08:06:50.486Z,10
2016-06-01T08:07:50.630Z,10
2016-06-01T08:08:50.477Z,10
2016-06-01T08:09:50.354Z,10
2016-06-01T08:10:53.669Z,10
2016-06-01T08:11:50.656Z,10
2016-06-01T08:12:50.518Z,10
2016-06-01T08:13:50.677Z,10
2016-06-01T08:14:50.680Z,10
2016-06-01T08:15:53.464Z,10
2016-06-01T08:16:50.685Z,10
2016-06-01T08:17:50.688Z,10
2016-06-01T08:18:50.550Z,10
2016-06-01T08:19:50.553Z,10
2016-06-01T08:20:51.806Z,10
2016-06-01T08:21:50.715Z,15
2016-06-01T08:22:50.733Z,20
2016-06-01T08:23:50.610Z,20
2016-06-01T08:24:51.222Z,20
2016-06-01T08:25:53.007Z,20
2016-06-01T08:26:50.775Z,15
2016-06-01T08:27:50.309Z,15
2016-06-01T08:28:50.623Z,15
2016-06-01T08:29:50.783Z,15
2016-06-01T08:30:53.067Z,15
2016-06-01T08:31:50.789Z,15
2016-06-01T08:32:50.791Z,15
2016-06-01T08:33:50.793Z,15
2016-06-01T08:34:50.640Z,15
2016-06-01T08:35:52.814Z,15
2016-06-01T08:36:50.661Z,15
2016-06-01T08:37:50.805Z,20
2016-06-01T08:38:52.166Z,20
2016-06-01T08:39:51.341Z,20
2016-06-01T08:40:52.485Z,20
2016-06-01T08:41:50.846Z,15
2016-06-01T08:42:50.865Z,15
2016-06-01T08:43:50.852Z,20
2016-06-01T08:44:50.871Z,20
2016-06-01T08:45:51.279Z,20
2016-06-01T08:46:50.719Z,20
2016-06-01T08:47:50.879Z,20
2016-06-01T08:48:50.882Z,15
2016-06-01T08:49:50.884Z,15
2016-06-01T08:50:50.901Z,15
2016-06-01T08:51:50.904Z,15
2016-06-01T08:52:51.017Z,15
2016-06-01T08:53:51.176Z,15
2016-06-01T08:54:51.304Z,15
2016-06-01T08:55:54.196Z,15
2016-06-01T08:56:50.778Z,15
2016-06-01T08:57:50.937Z,15
2016-06-01T08:58:50.939Z,15
2016-06-01T08:59:50.800Z,20
2016-06-01T09:00:50.976Z,20
2016-06-01T09:01:50.978Z,20
2016-06-01T09:02:50.997Z,20
2016-06-01T09:03:50.984Z,20
2016-06-01T09:04:50.830Z,25
2016-06-01T09:05:51.020Z,20
2016-06-01T09:06:50.836Z,20
2016-06-01T09:07:50.869Z,20
2016-06-01T09:08:51.919Z,15
2016-06-01T09:09:51.124Z,15
2016-06-01T09:10:51.033Z,15
2016-06-01T09:11:50.708Z,15
2016-06-01T09:12:51.039Z,15
2016-06-01T09:13:51.027Z,15
2016-06-01T09:14:51.044Z,15
2016-06-01T09:15:50.892Z,15
2016-06-01T09:16:50.763Z,15
2016-06-01T09:17:51.118Z,15
2016-06-01T09:18:50.988Z,10
2016-06-01T09:19:51.266Z,10
2016-06-01T09:20:51.213Z,10
2016-06-01T09:21:51.084Z,10
2016-06-01T09:22:51.219Z,10
2016-06-01T09:23:51.106Z,15
2016-06-01T09:24:51.554Z,15
2016-06-01T09:25:51.144Z,15
2016-06-01T09:26:51.290Z,15
2016-06-01T09:27:51.281Z,15
2016-06-01T09:28:51.301Z,15
2016-06-01T09:29:51.292Z,20
2016-06-01T09:30:51.329Z,20
2016-06-01T09:31:51.316Z,20
2016-06-01T09:32:51.165Z,20
2016-06-01T09:33:51.325Z,20
2016-06-01T09:34:51.344Z,25
2016-06-01T09:35:51.363Z,20
2016-06-01T09:36:51.351Z,20
2016-06-01T09:37:51.369Z,15
2016-06-01T09:38:51.388Z,15
2016-06-01T09:39:51.235Z,10
2016-06-01T09:40:51.378Z,10
2016-06-01T09:41:51.398Z,10
2016-06-01T09:42:51.417Z,15
2016-06-01T09:43:51.403Z,15
2016-06-01T09:44:51.406Z,15
2016-06-01T09:45:51.425Z,15
2016-06-01T09:46:51.428Z,15
2016-06-01T09:47:51.462Z,15
2016-06-01T09:48:51.434Z,15
2016-06-01T09:49:51.295Z,15
2016-06-01T09:50:51.439Z,15
2016-06-01T09:51:51.457Z,15
2016-06-01T09:52:51.538Z,15
2016-06-01T09:53:52.040Z,15
2016-06-01T09:54:51.777Z,15
2016-06-01T09:55:51.296Z,15
2016-06-01T09:56:51.486Z,15
2016-06-01T09:57:51.489Z,15
2016-06-01T09:58:51.350Z,10
2016-06-01T09:59:51.510Z,10
2016-06-01T10:00:51.528Z,10
2016-06-01T10:01:51.531Z,15
2016-06-01T10:02:51.519Z,15
2016-06-01T10:03:51.380Z,15
2016-06-01T10:04:51.523Z,15
2016-06-01T10:05:51.558Z,15
2016-06-01T10:06:51.560Z,15
2016-06-01T10:07:51.547Z,15
2016-06-01T10:08:51.565Z,15
2016-06-01T10:09:51.708Z,15
2016-06-01T10:10:51.571Z,15
2016-06-01T10:11:51.433Z,15
2016-06-01T10:12:51.592Z,15
2016-06-01T10:13:51.610Z,15
2016-06-01T10:14:51.596Z,15
2016-06-01T10:15:51.600Z,15
2016-06-01T10:16:51.462Z,15
2016-06-01T10:17:51.636Z,15
2016-06-01T10:18:51.623Z,15
2016-06-01T10:19:51.626Z,20
2016-06-01T10:20:51.629Z,20
2016-06-01T10:21:51.475Z,25
2016-06-01T10:22:51.634Z,25
2016-06-01T10:23:51.637Z,30
2016-06-01T10:24:51.968Z,30
2016-06-01T10:25:51.659Z,35
2016-06-01T10:26:51.661Z,35
2016-06-01T10:27:51.694Z,35
2016-06-01T10:28:51.666Z,30
2016-06-01T10:29:51.669Z,30
2016-06-01T10:30:51.375Z,35
2016-06-01T10:31:51.377Z,35
2016-06-01T10:32:51.677Z,40
2016-06-01T10:33:51.680Z,40
2016-06-01T10:34:51.698Z,40
2016-06-01T10:35:51.685Z,40
2016-06-01T10:36:51.531Z,35
2016-06-01T10:37:51.377Z,40
2016-06-01T10:38:51.553Z,40
2016-06-01T10:39:52.071Z,40
2016-06-01T10:40:51.791Z,35
2016-06-01T10:41:51.545Z,30
2016-06-01T10:42:51.704Z,30
2016-06-01T10:43:51.550Z,35
2016-06-01T10:44:51.552Z,35
2016-06-01T10:45:51.415Z,40
2016-06-01T10:46:51.729Z,40
2016-06-01T10:47:51.577Z,40
2016-06-01T10:48:51.720Z,35
2016-06-01T10:49:51.754Z,35
2016-06-01T10:50:51.569Z,35
2016-06-01T10:51:51.557Z,35
2016-06-01T10:52:51.731Z,35
2016-06-01T10:53:51.936Z,30
2016-06-01T10:54:51.642Z,30
2016-06-01T10:55:52.332Z,25
2016-06-01T10:56:51.648Z,25
2016-06-01T10:57:51.775Z,30
2016-06-01T10:58:51.590Z,30
2016-06-01T10:59:51.750Z,35
2016-06-01T11:00:51.784Z,40
2016-06-01T11:01:51.756Z,50
2016-06-01T11:02:51.491Z,55
2016-06-01T11:03:51.619Z,65
2016-06-01T11:04:51.606Z,70
2016-06-01T11:05:51.609Z,75
2016-06-01T11:06:51.783Z,80
2016-06-01T11:07:51.771Z,85
2016-06-01T11:08:51.805Z,85
2016-06-01T11:09:52.464Z,70
2016-06-01T11:10:51.779Z,70
2016-06-01T11:11:51.782Z,70
2016-06-01T11:12:51.784Z,60
2016-06-01T11:13:51.787Z,60
2016-06-01T11:14:51.790Z,55
2016-06-01T11:15:51.652Z,50
2016-06-01T11:16:51.810Z,50
2016-06-01T11:17:51.657Z,60
2016-06-01T11:18:51.660Z,70
2016-06-01T11:19:51.366Z,80
2016-06-01T11:20:51.884Z,80
2016-06-01T11:21:51.856Z,80
2016-06-01T11:22:51.842Z,75
2016-06-01T11:23:51.673Z,70
2016-06-01T11:24:51.535Z,75
2016-06-01T11:25:51.851Z,85
2016-06-01T11:26:51.712Z,90
2016-06-01T11:27:51.700Z,100
2016-06-01T11:28:51.875Z,105
2016-06-01T11:29:51.893Z,105
2016-06-01T11:30:51.864Z,100
2016-06-01T11:31:51.710Z,100
2016-06-01T11:32:51.728Z,100
2016-06-01T11:33:51.903Z,105
2016-06-01T11:34:51.891Z,100
2016-06-01T11:35:51.722Z,100
2016-06-01T11:36:51.897Z,105
2016-06-01T11:37:51.899Z,110
2016-06-01T11:38:51.730Z,110
2016-06-01T11:39:52.405Z,110
2016-06-01T11:40:51.766Z,105
2016-06-01T11:41:51.752Z,95
2016-06-01T11:42:51.755Z,90
2016-06-01T11:43:51.758Z,90
2016-06-01T11:44:51.777Z,85
2016-06-01T11:45:51.936Z,85
2016-06-01T11:46:51.938Z,85
2016-06-01T11:47:51.785Z,85
2016-06-01T11:48:51.944Z,80
2016-06-01T11:49:51.634Z,80
2016-06-01T11:50:51.965Z,80
2016-06-01T11:51:51.796Z,80
2016-06-01T11:52:51.814Z,80
2016-06-01T11:53:52.363Z,80
2016-06-01T11:54:51.975Z,80
2016-06-01T11:55:51.993Z,80
2016-06-01T11:56:51.668Z,80
2016-06-01T11:57:51.984Z,80
2016-06-01T11:58:52.033Z,80
2016-06-01T11:59:51.833Z,75
2016-06-01T12:00:51.851Z,80
2016-06-01T12:01:51.854Z,75
2016-06-01T12:02:51.997Z,70
2016-06-01T12:03:51.687Z,65
2016-06-01T12:04:52.018Z,60
2016-06-01T12:05:52.021Z,55
2016-06-01T12:06:52.022Z,50
2016-06-01T12:07:51.714Z,50
2016-06-01T12:08:52.061Z,50
2016-06-01T12:09:53.000Z,50
2016-06-01T12:10:51.737Z,45
2016-06-01T12:11:52.022Z,45
2016-06-01T12:12:52.055Z,40
2016-06-01T12:13:51.902Z,40
2016-06-01T12:14:52.045Z,35
2016-06-01T12:15:51.891Z,35
2016-06-01T12:16:52.050Z,35
2016-06-01T12:17:51.912Z,30
2016-06-01T12:18:52.071Z,30
2016-06-01T12:19:52.074Z,30
2016-06-01T12:20:51.920Z,30
2016-06-01T12:21:51.938Z,30
2016-06-01T12:22:51.926Z,30
2016-06-01T12:23:52.069Z,35
2016-06-01T12:24:52.509Z,35
2016-06-01T12:25:52.090Z,35
2016-06-01T12:26:51.952Z,35
2016-06-01T12:27:52.095Z,40
2016-06-01T12:28:52.115Z,40
2016-06-01T12:29:51.960Z,45
2016-06-01T12:30:52.119Z,45
2016-06-01T12:31:52.107Z,50
2016-06-01T12:32:52.125Z,50
2016-06-01T12:33:51.970Z,50
2016-06-01T12:34:52.130Z,50
2016-06-01T12:35:52.133Z,50
2016-06-01T12:36:51.978Z,45
2016-06-01T12:37:52.139Z,45
2016-06-01T12:38:51.984Z,45
2016-06-01T12:39:53.003Z,40
2016-06-01T12:40:51.990Z,40
2016-06-01T12:41:52.149Z,35
2016-06-01T12:42:52.152Z,35
2016-06-01T12:43:51.998Z,35
2016-06-01T12:44:52.391Z,35
2016-06-01T12:45:52.018Z,35
2016-06-01T12:46:52.022Z,35
2016-06-01T12:47:52.024Z,40
2016-06-01T12:48:52.027Z,45
2016-06-01T12:49:51.889Z,45
2016-06-01T12:50:52.032Z,45
2016-06-01T12:51:52.207Z,45
2016-06-01T12:52:51.913Z,50
2016-06-01T12:53:52.244Z,55
2016-06-01T12:54:52.746Z,55
2016-06-01T12:55:52.359Z,60
2016-06-01T12:56:52.221Z,60
2016-06-01T12:57:52.067Z,55
2016-06-01T12:58:52.070Z,50
2016-06-01T12:59:52.245Z,50
2016-06-01T13:00:52.231Z,50
2016-06-01T13:01:52.078Z,55
2016-06-01T13:02:52.237Z,60
2016-06-01T13:03:52.239Z,60
2016-06-01T13:04:52.117Z,60
2016-06-01T13:05:52.245Z,55
2016-06-01T13:06:52.091Z,45
2016-06-01T13:07:52.266Z,35
2016-06-01T13:08:52.252Z,25
2016-06-01T13:09:53.052Z,20
2016-06-01T13:10:52.117Z,20
2016-06-01T13:11:52.136Z,20
2016-06-01T13:12:52.279Z,25
2016-06-01T13:13:52.282Z,30
2016-06-01T13:14:52.299Z,30
2016-06-01T13:15:52.302Z,35
2016-06-01T13:16:52.305Z,35
2016-06-01T13:17:52.324Z,40
2016-06-01T13:18:52.311Z,45
2016-06-01T13:19:52.235Z,45
2016-06-01T13:20:52.301Z,50
2016-06-01T13:21:52.007Z,50
2016-06-01T13:22:51.994Z,55
2016-06-01T13:23:51.996Z,60
2016-06-01T13:24:52.921Z,60
2016-06-01T13:25:52.002Z,60
2016-06-01T13:26:52.332Z,50
2016-06-01T13:27:52.037Z,45
2016-06-01T13:28:52.323Z,40
2016-06-01T13:29:52.200Z,40
2016-06-01T13:30:52.046Z,45
2016-06-01T13:31:52.345Z,45
2016-06-01T13:32:52.348Z,50
2016-06-01T13:33:52.351Z,55
2016-06-01T13:34:52.228Z,60
2016-06-01T13:35:52.217Z,60
2016-06-01T13:36:52.375Z,65
2016-06-01T13:37:52.378Z,65
2016-06-01T13:38:52.380Z,70
2016-06-01T13:39:52.273Z,70
2016-06-01T13:40:52.386Z,70
2016-06-01T13:41:52.372Z,65
2016-06-01T13:42:52.391Z,65
2016-06-01T13:43:52.424Z,65
2016-06-01T13:44:52.397Z,65
2016-06-01T13:45:52.415Z,65
2016-06-01T13:46:52.417Z,70
2016-06-01T13:52:41.244Z,90
2016-06-01T13:52:54.013Z,90
2016-06-01T13:53:54.016Z,95
2016-06-01T13:54:55.908Z,95
2016-06-01T13:55:54.739Z,100
2016-06-01T13:56:53.867Z,105
2016-06-01T13:57:53.713Z,105
2016-06-01T14:03:54.759Z,95
2016-06-01T14:04:07.714Z,95
2016-06-01T14:05:07.842Z,95
2016-06-01T14:06:07.830Z,90
2016-06-01T14:07:07.801Z,90
2016-06-01T14:08:07.835Z,80
2016-06-01T14:09:07.807Z,80
2016-06-01T14:10:08.527Z,75
2016-06-01T14:11:07.641Z,70
2016-06-01T14:12:07.830Z,65
2016-06-01T14:13:07.848Z,65
2016-06-01T14:14:07.835Z,65
2016-06-01T14:15:07.838Z,70
2016-06-01T14:16:07.841Z,75
2016-06-01T14:17:07.828Z,75
2016-06-01T14:18:07.691Z,75
2016-06-01T14:19:07.834Z,75
2016-06-01T14:20:07.851Z,70
2016-06-01T14:21:07.871Z,70
2016-06-01T14:22:07.857Z,70
2016-06-01T14:23:07.859Z,75
2016-06-01T14:24:07.863Z,70
2016-06-01T14:25:08.506Z,75
2016-06-01T14:26:07.868Z,75
2016-06-01T14:27:07.871Z,75
2016-06-01T14:28:07.873Z,75
2016-06-01T14:29:07.876Z,75
2016-06-01T14:30:07.878Z,80
2016-06-01T14:31:07.741Z,85
2016-06-01T14:32:07.900Z,85
2016-06-01T14:33:07.886Z,85
2016-06-01T14:34:07.750Z,90
2016-06-01T14:35:07.908Z,90
2016-06-01T14:36:07.910Z,95